Terminal Aerodrome Forecast
Issued by NWS Pueblo, CO

Home | Current Version | Previous Version | Text Only | Print | Product List | Glossary On
Versions: 1 2 3 4 5 6 7 8 9 10 11 12 13 14 15
000
FTUS45 KPUB 260531
TAFALS
TAF
KALS 260531Z 2606/2706 VRB06KT P6SM BKN130
     FM261700 17010KT P6SM SCT100 SCT200
     FM262100 23015G25KT P6SM VCSH SCT080 BKN140
     FM270300 25010KT P6SM VCSH BKN050=

USA.gov is the U.S. government's official web portal to all federal, state and local government web resources and services.